createdAt,value
2018-06-07T00:03:49.315Z,12.83
2018-06-07T00:06:25.292Z,12.50
2018-06-07T00:09:00.113Z,11.73
2018-06-07T00:14:32.982Z,11.50
2018-06-07T00:17:07.244Z,11.77
2018-06-07T00:19:43.426Z,11.10
2018-06-07T00:22:24.778Z,11.07
2018-06-07T00:25:17.823Z,10.70
2018-06-07T00:27:58.478Z,11.53
2018-06-07T00:30:36.372Z,11.67
2018-06-07T00:33:14.137Z,11.37
2018-06-07T00:35:50.406Z,10.03
2018-06-07T00:38:32.520Z,12.07
2018-06-07T00:42:13.856Z,11.70
2018-06-07T00:44:51.167Z,12.63
2018-06-07T00:47:32.535Z,12.17
2018-06-07T00:50:06.208Z,12.37
2018-06-07T00:52:49.200Z,12.60
2018-06-07T00:55:22.715Z,11.27
2018-06-07T00:58:00.462Z,11.90
2018-06-07T01:00:37.899Z,10.70
2018-06-07T01:03:14.566Z,12.43
2018-06-07T01:05:49.463Z,12.60
2018-06-07T01:08:22.152Z,11.90
2018-06-07T01:11:00.314Z,12.30
2018-06-07T01:13:37.141Z,13.20
2018-06-07T01:16:19.045Z,12.47
2018-06-07T01:18:54.276Z,12.50
2018-06-07T01:21:27.769Z,11.97
2018-06-07T01:24:05.387Z,13.70
2018-06-07T01:26:44.685Z,12.43
2018-06-07T01:31:32.634Z,11.60
2018-06-07T01:34:03.608Z,12.50
2018-06-07T01:36:45.561Z,13.43
2018-06-07T01:39:24.067Z,11.47
2018-06-07T01:41:57.344Z,13.93
2018-06-07T01:44:41.921Z,12.27
2018-06-07T01:47:14.733Z,12.93
2018-06-07T01:49:53.880Z,13.90
2018-06-07T01:52:36.794Z,12.00
2018-06-07T01:55:15.900Z,14.33
2018-06-07T01:57:47.497Z,12.70
2018-06-07T02:00:23.368Z,12.63
2018-06-07T02:03:05.000Z,13.43
2018-06-07T02:05:39.898Z,14.07
2018-06-07T02:08:19.539Z,13.15
2018-06-07T02:10:59.282Z,14.00
2018-06-07T02:13:33.180Z,13.73
2018-06-07T02:16:16.478Z,13.37
2018-06-07T02:18:56.249Z,13.40
2018-06-07T02:21:28.456Z,13.07
2018-06-07T02:24:01.355Z,12.27
2018-06-07T02:26:37.555Z,12.40
2018-06-07T02:29:14.378Z,13.47
2018-06-07T02:31:49.737Z,12.83
2018-06-07T02:34:27.428Z,15.30
2018-06-07T02:37:06.215Z,12.03
2018-06-07T02:39:45.076Z,14.75
2018-06-07T02:42:25.776Z,14.00
2018-06-07T02:44:57.550Z,15.10
2018-06-07T02:47:34.380Z,13.90
2018-06-07T02:50:13.125Z,16.53
2018-06-07T02:52:48.505Z,16.63
2018-06-07T02:58:19.746Z,15.30
2018-06-07T03:01:01.960Z,16.00
2018-06-07T03:03:37.703Z,16.63
2018-06-07T03:06:13.621Z,15.87
2018-06-07T03:08:58.150Z,16.23
2018-06-07T03:11:43.585Z,16.27
2018-06-07T03:14:22.777Z,19.37
2018-06-07T03:17:02.712Z,15.67
2018-06-07T03:19:39.126Z,16.40
2018-06-07T03:22:18.994Z,14.93
2018-06-07T03:24:52.751Z,18.97
2018-06-07T03:27:37.651Z,15.83
2018-06-07T03:30:16.521Z,17.10
2018-06-07T03:32:59.636Z,15.50
2018-06-07T03:35:37.683Z,20.87
2018-06-07T03:38:30.776Z,19.13
2018-06-07T03:41:19.262Z,17.80
2018-06-07T03:44:04.223Z,17.27
2018-06-07T03:46:48.493Z,16.70
2018-06-07T03:50:23.683Z,18.80
2018-06-07T03:56:01.213Z,19.00
2018-06-07T03:58:42.733Z,19.00
2018-06-07T04:01:33.577Z,17.60
2018-06-07T04:04:15.972Z,16.80
2018-06-07T04:07:17.353Z,18.80
2018-06-07T22:23:32.817Z,18.90
2018-06-07T22:26:42.181Z,19.77
2018-06-07T22:29:37.190Z,19.90
2018-06-07T22:44:28.143Z,24.47
2018-06-07T22:53:34.010Z,23.63
2018-06-07T22:56:37.495Z,25.23
2018-06-07T23:02:21.370Z,25.00
2018-06-07T23:05:00.703Z,25.80
2018-06-07T23:07:43.588Z,25.10
2018-06-07T23:10:27.668Z,26.60
2018-06-07T23:27:29.255Z,31.43
2018-06-07T23:30:21.807Z,31.27
2018-06-07T23:33:00.419Z,35.13
2018-06-07T23:35:45.039Z,31.77
2018-06-07T23:51:13.844Z,38.95
